Lavalette, WV

11:18 PM EDT del 28 Settembre 2016 (GMT -0400)
74 Gideon Ln | | Change Station

Alt. 587 ft 38.27 °N, 82.46 °W | Updated 13 seconds ago

Light Rain
Pioggia leggera
58.2 °F
Sembra 58.2 °F
N
0.0
Vento Variabile Vento da ESE

Oggi
Massima -- | Minima -- °F
--% Possibilità di precip.
Ieri
Massima -- | Minima -- °F
Precip. -- in
Pressione 29.97 in
Visibilità 6.0 miglia
Nuvole Alcuni 1800 ft
Molto nuvoloso 7500 ft
Coperto 9000 ft
Punto di rugiada 55 °F
Umidità 88%
Piovosità 0.18 in
Spessore del manto nevoso Non disponibile.
7:23 AM 7:16 PM
Luna calante, 3% visible
SPECI KHTS 290302Z 14004KT 6SM -RA BR FEW018 BKN075 OVC090 14/13 A2997 RMK AO2 P0001 T01440133
Pressione 29.97 in
Visibilità 6.0 miglia
Nuvole Alcuni 1800 ft
Molto nuvoloso 7500 ft
Coperto 9000 ft
Punto di rugiada 55 °F
Umidità 88%
Piovosità 0.18 in
Spessore del manto nevoso Non disponibile.
7:23 AM 7:16 PM
Luna calante, 3% visible
SPECI KHTS 290302Z 14004KT 6SM -RA BR FEW018 BKN075 OVC090 14/13 A2997 RMK AO2 P0001 T01440133

10-Day Weather Forecast

Almanac

Astronomia

Sep. 28, 2016 Alba Tramonto
Ora attuale
Crepuscolo civile
Crepuscolo nautico
Crepuscolo astronomico
Luna
Estensione della luce visibile
Lunghezza del giorno
Tomorrow will be .
, % of the Moon is Illuminated

Gli estremi di oggi

State Highs State Lows

Community

WunderPhotos

Upload Photos

1,942,416 foto caricate!

WunderBlog® & News

Nearby

Qualità dell'aria

  Qualità dell'aria Indice AQ Inquinante
Not available.

Profondità neve

Stazione Profondità Altitudine

Attività sismica

Città  Distanza Mag. Data & Ora
Minimo Magnitudo Mostrato è 2.5.

Temperature delle acque costiere

Località Temperatura

Stations

Stazioni meteo nelle vicinanze

Ubicazione della stazione Temp. Raffreddamento del vento Punto di rugiada Umidità Vento Precip. Alt. Aggiornato Tipo
                   

Watches & Warnings

There are currently no watches in effect.